TimeCDT,TemperatureF,Dew PointF,Humidity,Sea Level PressureIn,VisibilityMPH,Wind Direction,Wind SpeedMPH,Gust SpeedMPH,PrecipitationIn,Events,Conditions,WindDirDegrees,DateUTC
12:15 AM,72.5,67.5,84,30.01,10.0,SSE,3.5,-,N/A,,Clear,150,2013-09-08 05:15:00
12:35 AM,72.0,67.3,85,30.01,10.0,SE,3.5,-,N/A,,Clear,140,2013-09-08 05:35:00
12:55 AM,71.6,67.3,86,30.01,10.0,Calm,Calm,-,N/A,,Clear,0,2013-09-08 05:55:00
1:15 AM,71.4,67.1,86,30.00,10.0,Calm,Calm,-,N/A,,Clear,0,2013-09-08 06:15:00
1:35 AM,70.2,66.6,88,30.00,10.0,Calm,Calm,-,N/A,,Clear,0,2013-09-08 06:35:00
1:55 AM,69.8,66.6,89,30.00,10.0,Calm,Calm,-,N/A,,Clear,0,2013-09-08 06:55:00
2:15 AM,70.0,66.4,88,30.00,10.0,Calm,Calm,-,N/A,,Clear,0,2013-09-08 07:15:00
2:35 AM,68.9,66.0,90,29.99,10.0,Calm,Calm,-,N/A,,Clear,0,2013-09-08 07:35:00
2:55 AM,67.5,64.8,91,29.99,10.0,Calm,Calm,-,N/A,,Clear,0,2013-09-08 07:55:00
3:15 AM,67.6,65.3,92,29.99,10.0,Calm,Calm,-,N/A,,Clear,0,2013-09-08 08:15:00
3:35 AM,66.9,64.6,92,29.99,10.0,Calm,Calm,-,N/A,,Clear,0,2013-09-08 08:35:00
3:55 AM,66.4,64.4,93,29.99,10.0,Calm,Calm,-,N/A,,Clear,0,2013-09-08 08:55:00
4:15 AM,67.1,65.3,94,29.99,10.0,Calm,Calm,-,N/A,,Clear,0,2013-09-08 09:15:00
4:35 AM,65.7,63.7,93,29.99,10.0,Calm,Calm,-,N/A,,Clear,0,2013-09-08 09:35:00
4:55 AM,64.6,62.6,93,29.98,10.0,NNE,4.6,-,N/A,,Clear,30,2013-09-08 09:55:00
5:15 AM,65.3,63.7,94,29.98,10.0,Calm,Calm,-,N/A,,Clear,0,2013-09-08 10:15:00
5:35 AM,64.6,63.0,94,29.98,10.0,Calm,Calm,-,N/A,,Clear,0,2013-09-08 10:35:00
5:55 AM,65.7,64.0,94,29.99,10.0,Calm,Calm,-,N/A,,Clear,0,2013-09-08 10:55:00
6:15 AM,64.8,63.1,94,30.00,10.0,Calm,Calm,-,N/A,,Clear,0,2013-09-08 11:15:00
6:35 AM,65.1,63.5,94,30.01,10.0,Calm,Calm,-,N/A,,Clear,0,2013-09-08 11:35:00
6:55 AM,65.3,63.7,94,30.01,10.0,Calm,Calm,-,N/A,,Clear,0,2013-09-08 11:55:00
7:15 AM,64.9,63.5,95,30.02,10.0,Calm,Calm,-,N/A,,Clear,0,2013-09-08 12:15:00
7:35 AM,64.8,63.5,96,30.02,10.0,Calm,Calm,-,N/A,,Clear,0,2013-09-08 12:35:00
7:55 AM,66.0,64.6,95,30.02,10.0,Calm,Calm,-,N/A,,Clear,0,2013-09-08 12:55:00
8:15 AM,67.1,65.5,95,30.03,10.0,Calm,Calm,-,N/A,,Clear,0,2013-09-08 13:15:00
8:35 AM,68.7,66.4,92,30.03,10.0,Calm,Calm,-,N/A,,Clear,0,2013-09-08 13:35:00
8:55 AM,71.1,67.1,87,30.04,10.0,Calm,Calm,-,N/A,,Clear,0,2013-09-08 13:55:00
9:15 AM,73.2,67.1,81,30.03,10.0,Calm,Calm,-,N/A,,Clear,0,2013-09-08 14:15:00
9:35 AM,75.4,67.6,77,30.03,10.0,Calm,Calm,-,N/A,,Clear,0,2013-09-08 14:35:00
9:55 AM,77.5,68.0,72,30.03,10.0,South,3.5,-,N/A,,Clear,180,2013-09-08 14:55:00
10:15 AM,79.0,68.0,69,30.03,10.0,South,3.5,-,N/A,,Clear,190,2013-09-08 15:15:00
10:35 AM,80.8,67.6,64,30.03,10.0,Calm,Calm,-,N/A,,Clear,0,2013-09-08 15:35:00
10:55 AM,82.4,68.0,62,30.03,10.0,Calm,Calm,-,N/A,,Clear,0,2013-09-08 15:55:00
11:15 AM,83.7,68.0,59,30.02,10.0,Calm,Calm,-,N/A,,Clear,0,2013-09-08 16:15:00
11:35 AM,85.6,66.2,52,30.01,10.0,SSE,6.9,-,N/A,,Clear,150,2013-09-08 16:35:00
11:55 AM,88.0,64.8,46,30.01,10.0,ESE,8.1,-,N/A,,Clear,120,2013-09-08 16:55:00
12:35 PM,89.2,64.0,43,30.00,10.0,East,4.6,-,N/A,,Scattered Clouds,90,2013-09-08 17:35:00
12:55 PM,90.9,62.1,38,30.00,7.0,SSE,9.2,-,N/A,,Clear,160,2013-09-08 17:55:00
1:15 PM,89.8,63.5,41,29.99,10.0,East,9.2,-,N/A,,Clear,90,2013-09-08 18:15:00
1:35 PM,91.8,63.3,39,29.98,10.0,ESE,6.9,-,N/A,,Scattered Clouds,120,2013-09-08 18:35:00
1:55 PM,93.4,62.2,35,29.98,7.0,South,8.1,-,N/A,,Scattered Clouds,170,2013-09-08 18:55:00
2:15 PM,94.3,62.1,34,29.97,10.0,NNE,6.9,-,N/A,,Mostly Cloudy,20,2013-09-08 19:15:00
2:35 PM,94.5,61.3,33,29.96,10.0,Calm,Calm,-,N/A,,Mostly Cloudy,0,2013-09-08 19:35:00
2:55 PM,94.6,62.4,34,29.95,10.0,South,8.1,-,N/A,,Scattered Clouds,170,2013-09-08 19:55:00
3:15 PM,92.1,60.3,34,29.95,10.0,ESE,5.8,-,N/A,,Clear,120,2013-09-08 20:15:00
3:35 PM,95.2,60.1,31,29.94,10.0,ESE,8.1,-,N/A,,Clear,110,2013-09-08 20:35:00
3:55 PM,96.1,61.0,31,29.93,10.0,East,9.2,-,N/A,,Scattered Clouds,90,2013-09-08 20:55:00
4:15 PM,94.3,59.0,31,29.92,10.0,ESE,6.9,-,N/A,,Clear,120,2013-09-08 21:15:00
4:35 PM,94.5,58.6,30,29.92,10.0,SE,9.2,-,N/A,,Clear,140,2013-09-08 21:35:00
4:55 PM,96.1,59.5,30,29.91,10.0,East,10.4,-,N/A,,Scattered Clouds,100,2013-09-08 21:55:00
5:15 PM,93.9,60.1,32,29.91,10.0,SSE,5.8,-,N/A,,Scattered Clouds,150,2013-09-08 22:15:00
5:35 PM,95.4,57.7,28,29.90,10.0,East,9.2,-,N/A,,Clear,90,2013-09-08 22:35:00
5:55 PM,95.5,52.9,24,29.90,10.0,SE,8.1,-,N/A,,Clear,140,2013-09-08 22:55:00
6:15 PM,94.5,55.8,27,29.90,10.0,SE,10.4,16.1,N/A,,Clear,130,2013-09-08 23:15:00
6:35 PM,94.1,55.9,28,29.91,10.0,East,12.7,16.1,N/A,,Clear,100,2013-09-08 23:35:00
6:55 PM,93.2,56.8,29,29.91,10.0,ESE,6.9,-,N/A,,Clear,120,2013-09-08 23:55:00
7:15 PM,92.3,56.8,30,29.91,10.0,SE,6.9,-,N/A,,Clear,130,2013-09-09 00:15:00
7:35 PM,90.9,57.4,32,29.92,10.0,ESE,5.8,-,N/A,,Clear,120,2013-09-09 00:35:00
7:55 PM,89.4,59.7,37,29.93,10.0,ESE,5.8,-,N/A,,Clear,120,2013-09-09 00:55:00
8:15 PM,88.0,59.9,39,29.94,10.0,South,6.9,-,N/A,,Clear,190,2013-09-09 01:15:00
8:35 PM,85.8,62.4,45,29.95,10.0,SSE,5.8,-,N/A,,Clear,160,2013-09-09 01:35:00
8:55 PM,84.4,62.8,48,29.96,10.0,SSE,4.6,-,N/A,,Clear,150,2013-09-09 01:55:00
9:15 PM,83.3,63.5,51,29.96,10.0,SSE,3.5,-,N/A,,Clear,160,2013-09-09 02:15:00
9:35 PM,82.2,63.9,54,29.97,10.0,SSE,3.5,-,N/A,,Clear,160,2013-09-09 02:35:00
9:55 PM,81.5,64.4,56,29.97,10.0,South,4.6,-,N/A,,Clear,170,2013-09-09 02:55:00
10:15 PM,80.6,64.6,58,29.98,10.0,Calm,Calm,-,N/A,,Clear,0,2013-09-09 03:15:00
10:35 PM,80.1,65.1,60,29.98,10.0,Calm,Calm,-,N/A,,Clear,0,2013-09-09 03:35:00
10:55 PM,79.2,65.5,63,29.98,10.0,Calm,Calm,-,N/A,,Clear,0,2013-09-09 03:55:00
11:15 PM,79.0,65.8,64,29.98,10.0,SSE,3.5,-,N/A,,Clear,160,2013-09-09 04:15:00
11:35 PM,78.8,66.2,65,29.98,10.0,South,3.5,-,N/A,,Clear,170,2013-09-09 04:35:00
11:55 PM,77.9,66.2,67,29.97,10.0,South,3.5,-,N/A,,Clear,170,2013-09-09 04:55:00